sensor_id;sensor_type;location;lat;lon;timestamp;temperature;humidity
6986;DHT22;3533;51.246;6.850;2023-09-18T00:00:42;24.70;51.60
6986;DHT22;3533;51.246;6.850;2023-09-18T00:03:08;24.60;51.50
6986;DHT22;3533;51.246;6.850;2023-09-18T00:05:34;24.60;51.50
6986;DHT22;3533;51.246;6.850;2023-09-18T00:07:59;24.60;51.60
6986;DHT22;3533;51.246;6.850;2023-09-18T00:10:27;24.70;51.60
6986;DHT22;3533;51.246;6.850;2023-09-18T00:12:54;24.60;51.50
6986;DHT22;3533;51.246;6.850;2023-09-18T00:15:20;24.60;51.60
6986;DHT22;3533;51.246;6.850;2023-09-18T00:17:46;24.60;51.50
6986;DHT22;3533;51.246;6.850;2023-09-18T00:20:11;24.60;51.50
6986;DHT22;3533;51.246;6.850;2023-09-18T00:22:37;24.60;51.60
6986;DHT22;3533;51.246;6.850;2023-09-18T00:25:03;24.60;51.50
6986;DHT22;3533;51.246;6.850;2023-09-18T00:27:29;24.60;51.60
6986;DHT22;3533;51.246;6.850;2023-09-18T00:29:55;24.60;51.50
6986;DHT22;3533;51.246;6.850;2023-09-18T00:32:20;24.60;51.60
6986;DHT22;3533;51.246;6.850;2023-09-18T00:34:46;24.60;51.60
6986;DHT22;3533;51.246;6.850;2023-09-18T00:37:11;24.60;51.60
6986;DHT22;3533;51.246;6.850;2023-09-18T00:39:38;24.60;51.50
6986;DHT22;3533;51.246;6.850;2023-09-18T00:42:03;24.60;51.60
6986;DHT22;3533;51.246;6.850;2023-09-18T00:44:29;24.60;51.60
6986;DHT22;3533;51.246;6.850;2023-09-18T00:46:55;24.60;51.60
6986;DHT22;3533;51.246;6.850;2023-09-18T00:49:22;24.60;51.60
6986;DHT22;3533;51.246;6.850;2023-09-18T00:51:48;24.60;51.60
6986;DHT22;3533;51.246;6.850;2023-09-18T00:54:16;24.60;51.60
6986;DHT22;3533;51.246;6.850;2023-09-18T00:56:47;24.60;51.60
6986;DHT22;3533;51.246;6.850;2023-09-18T00:59:13;24.60;51.60
6986;DHT22;3533;51.246;6.850;2023-09-18T01:01:40;24.60;51.60
6986;DHT22;3533;51.246;6.850;2023-09-18T01:04:07;24.60;51.60
6986;DHT22;3533;51.246;6.850;2023-09-18T01:06:33;24.60;51.60
6986;DHT22;3533;51.246;6.850;2023-09-18T01:08:58;24.60;51.70
6986;DHT22;3533;51.246;6.850;2023-09-18T01:12:01;24.60;51.70
6986;DHT22;3533;51.246;6.850;2023-09-18T01:14:40;24.60;51.60
6986;DHT22;3533;51.246;6.850;2023-09-18T01:17:09;24.60;51.60
6986;DHT22;3533;51.246;6.850;2023-09-18T01:19:43;24.60;51.70
6986;DHT22;3533;51.246;6.850;2023-09-18T01:22:14;24.60;51.70
6986;DHT22;3533;51.246;6.850;2023-09-18T01:24:40;24.60;51.70
6986;DHT22;3533;51.246;6.850;2023-09-18T01:27:14;24.60;51.70
6986;DHT22;3533;51.246;6.850;2023-09-18T01:29:45;24.60;51.70
6986;DHT22;3533;51.246;6.850;2023-09-18T01:32:11;24.60;51.70
6986;DHT22;3533;51.246;6.850;2023-09-18T01:34:44;24.60;51.70
6986;DHT22;3533;51.246;6.850;2023-09-18T01:37:11;24.60;51.70
6986;DHT22;3533;51.246;6.850;2023-09-18T01:39:38;24.60;51.70
6986;DHT22;3533;51.246;6.850;2023-09-18T01:42:05;24.50;51.60
6986;DHT22;3533;51.246;6.850;2023-09-18T01:44:32;24.60;51.70
6986;DHT22;3533;51.246;6.850;2023-09-18T01:46:59;24.60;51.70
6986;DHT22;3533;51.246;6.850;2023-09-18T01:49:38;24.60;51.70
6986;DHT22;3533;51.246;6.850;2023-09-18T01:52:05;24.60;51.70
6986;DHT22;3533;51.246;6.850;2023-09-18T01:54:31;24.60;51.70
6986;DHT22;3533;51.246;6.850;2023-09-18T01:56:57;24.50;51.60
6986;DHT22;3533;51.246;6.850;2023-09-18T01:59:23;24.50;51.60
6986;DHT22;3533;51.246;6.850;2023-09-18T02:01:50;24.60;51.80
6986;DHT22;3533;51.246;6.850;2023-09-18T02:04:16;24.60;51.70
6986;DHT22;3533;51.246;6.850;2023-09-18T02:06:42;24.60;51.70
6986;DHT22;3533;51.246;6.850;2023-09-18T02:09:08;24.50;51.70
6986;DHT22;3533;51.246;6.850;2023-09-18T02:11:41;24.60;51.80
6986;DHT22;3533;51.246;6.850;2023-09-18T02:14:08;24.60;51.70
6986;DHT22;3533;51.246;6.850;2023-09-18T02:16:37;24.60;51.80
6986;DHT22;3533;51.246;6.850;2023-09-18T02:19:03;24.60;51.80
6986;DHT22;3533;51.246;6.850;2023-09-18T02:21:29;24.50;51.60
6986;DHT22;3533;51.246;6.850;2023-09-18T02:23:55;24.60;51.80
6986;DHT22;3533;51.246;6.850;2023-09-18T02:26:22;24.50;51.70
6986;DHT22;3533;51.246;6.850;2023-09-18T02:28:47;24.50;51.70
6986;DHT22;3533;51.246;6.850;2023-09-18T02:31:13;24.60;51.80
6986;DHT22;3533;51.246;6.850;2023-09-18T02:33:39;24.50;51.70
6986;DHT22;3533;51.246;6.850;2023-09-18T02:36:05;24.60;51.80
6986;DHT22;3533;51.246;6.850;2023-09-18T02:38:32;24.50;51.70
6986;DHT22;3533;51.246;6.850;2023-09-18T02:40:58;24.50;51.70
6986;DHT22;3533;51.246;6.850;2023-09-18T02:43:23;24.50;51.70
6986;DHT22;3533;51.246;6.850;2023-09-18T02:45:49;24.50;51.70
6986;DHT22;3533;51.246;6.850;2023-09-18T02:48:15;24.50;51.70
6986;DHT22;3533;51.246;6.850;2023-09-18T02:50:41;24.60;51.80
6986;DHT22;3533;51.246;6.850;2023-09-18T02:53:11;24.50;51.70
6986;DHT22;3533;51.246;6.850;2023-09-18T02:55:36;24.60;51.80
6986;DHT22;3533;51.246;6.850;2023-09-18T02:58:02;24.60;51.80
6986;DHT22;3533;51.246;6.850;2023-09-18T03:00:28;24.50;51.70
6986;DHT22;3533;51.246;6.850;2023-09-18T03:02:54;24.60;51.80
6986;DHT22;3533;51.246;6.850;2023-09-18T03:05:19;24.50;51.70
6986;DHT22;3533;51.246;6.850;2023-09-18T03:07:45;24.50;51.70
6986;DHT22;3533;51.246;6.850;2023-09-18T03:10:11;24.50;51.70
6986;DHT22;3533;51.246;6.850;2023-09-18T03:12:39;24.60;51.80
6986;DHT22;3533;51.246;6.850;2023-09-18T03:15:05;24.50;51.70
6986;DHT22;3533;51.246;6.850;2023-09-18T03:17:31;24.50;51.70
6986;DHT22;3533;51.246;6.850;2023-09-18T03:19:57;24.60;51.80
6986;DHT22;3533;51.246;6.850;2023-09-18T03:22:23;24.50;51.60
6986;DHT22;3533;51.246;6.850;2023-09-18T03:24:48;24.50;51.80
6986;DHT22;3533;51.246;6.850;2023-09-18T03:27:14;24.50;51.80
6986;DHT22;3533;51.246;6.850;2023-09-18T03:29:39;24.50;51.70
6986;DHT22;3533;51.246;6.850;2023-09-18T03:32:05;24.50;51.70
6986;DHT22;3533;51.246;6.850;2023-09-18T03:34:30;24.50;51.70
6986;DHT22;3533;51.246;6.850;2023-09-18T03:36:56;24.50;51.80
6986;DHT22;3533;51.246;6.850;2023-09-18T03:39:21;24.50;51.80
6986;DHT22;3533;51.246;6.850;2023-09-18T03:41:47;24.50;51.70
6986;DHT22;3533;51.246;6.850;2023-09-18T03:44:12;24.50;51.80
6986;DHT22;3533;51.246;6.850;2023-09-18T03:46:38;24.50;51.80
6986;DHT22;3533;51.246;6.850;2023-09-18T03:49:04;24.50;51.80
6986;DHT22;3533;51.246;6.850;2023-09-18T03:51:29;24.50;51.80
6986;DHT22;3533;51.246;6.850;2023-09-18T03:53:55;24.50;51.80
6986;DHT22;3533;51.246;6.850;2023-09-18T03:56:21;24.50;51.80
6986;DHT22;3533;51.246;6.850;2023-09-18T03:58:47;24.50;51.80
6986;DHT22;3533;51.246;6.850;2023-09-18T04:01:15;24.50;51.80
6986;DHT22;3533;51.246;6.850;2023-09-18T04:03:41;24.50;51.80
6986;DHT22;3533;51.246;6.850;2023-09-18T04:06:07;24.50;51.80
6986;DHT22;3533;51.246;6.850;2023-09-18T04:08:32;24.50;52.00
6986;DHT22;3533;51.246;6.850;2023-09-18T04:10:58;24.50;51.80
6986;DHT22;3533;51.246;6.850;2023-09-18T04:13:24;24.50;51.80
6986;DHT22;3533;51.246;6.850;2023-09-18T04:15:50;24.50;51.80
6986;DHT22;3533;51.246;6.850;2023-09-18T04:18:15;24.50;51.80
6986;DHT22;3533;51.246;6.850;2023-09-18T04:20:41;24.50;51.80
6986;DHT22;3533;51.246;6.850;2023-09-18T04:23:23;24.50;51.80
6986;DHT22;3533;51.246;6.850;2023-09-18T04:25:50;24.50;51.80
6986;DHT22;3533;51.246;6.850;2023-09-18T04:28:17;24.50;51.90
6986;DHT22;3533;51.246;6.850;2023-09-18T04:30:44;24.50;51.90
6986;DHT22;3533;51.246;6.850;2023-09-18T04:33:09;24.50;51.90
6986;DHT22;3533;51.246;6.850;2023-09-18T04:35:35;24.50;52.60
6986;DHT22;3533;51.246;6.850;2023-09-18T04:38:00;24.50;51.80
6986;DHT22;3533;51.246;6.850;2023-09-18T04:40:26;24.50;51.90
6986;DHT22;3533;51.246;6.850;2023-09-18T04:42:52;24.50;51.90
6986;DHT22;3533;51.246;6.850;2023-09-18T04:45:18;24.50;51.80
6986;DHT22;3533;51.246;6.850;2023-09-18T04:47:43;24.50;52.60
6986;DHT22;3533;51.246;6.850;2023-09-18T04:50:09;24.50;51.80
6986;DHT22;3533;51.246;6.850;2023-09-18T04:52:38;24.50;51.80
6986;DHT22;3533;51.246;6.850;2023-09-18T04:55:06;24.50;51.80
6986;DHT22;3533;51.246;6.850;2023-09-18T04:57:31;24.50;51.80
6986;DHT22;3533;51.246;6.850;2023-09-18T04:59:57;24.50;51.80
6986;DHT22;3533;51.246;6.850;2023-09-18T05:02:22;24.50;51.70
6986;DHT22;3533;51.246;6.850;2023-09-18T05:04:50;24.50;51.80
6986;DHT22;3533;51.246;6.850;2023-09-18T05:07:16;24.50;51.80
6986;DHT22;3533;51.246;6.850;2023-09-18T05:09:41;24.60;51.80
6986;DHT22;3533;51.246;6.850;2023-09-18T05:12:09;24.50;51.70
6986;DHT22;3533;51.246;6.850;2023-09-18T05:14:42;24.60;51.80
6986;DHT22;3533;51.246;6.850;2023-09-18T05:17:15;24.60;51.80
6986;DHT22;3533;51.246;6.850;2023-09-18T05:19:42;24.60;51.80
6986;DHT22;3533;51.246;6.850;2023-09-18T05:22:08;24.60;51.80
6986;DHT22;3533;51.246;6.850;2023-09-18T05:24:36;24.60;51.80
6986;DHT22;3533;51.246;6.850;2023-09-18T05:27:01;24.60;51.80
6986;DHT22;3533;51.246;6.850;2023-09-18T05:29:28;24.60;51.80
6986;DHT22;3533;51.246;6.850;2023-09-18T05:31:53;24.60;51.90
6986;DHT22;3533;51.246;6.850;2023-09-18T05:34:19;24.60;51.80
6986;DHT22;3533;51.246;6.850;2023-09-18T05:36:44;24.60;51.80
6986;DHT22;3533;51.246;6.850;2023-09-18T05:39:10;24.60;51.80
6986;DHT22;3533;51.246;6.850;2023-09-18T05:41:41;24.60;51.80
6986;DHT22;3533;51.246;6.850;2023-09-18T05:44:07;24.60;51.80
6986;DHT22;3533;51.246;6.850;2023-09-18T05:46:36;24.60;51.80
6986;DHT22;3533;51.246;6.850;2023-09-18T05:49:02;24.60;51.80
6986;DHT22;3533;51.246;6.850;2023-09-18T05:51:28;24.60;51.80
6986;DHT22;3533;51.246;6.850;2023-09-18T05:53:53;24.60;51.80
6986;DHT22;3533;51.246;6.850;2023-09-18T05:56:19;24.60;51.80
6986;DHT22;3533;51.246;6.850;2023-09-18T05:58:44;24.60;51.80
6986;DHT22;3533;51.246;6.850;2023-09-18T06:01:10;24.60;51.70
6986;DHT22;3533;51.246;6.850;2023-09-18T06:03:35;24.60;51.70
6986;DHT22;3533;51.246;6.850;2023-09-18T06:06:02;24.60;51.70
6986;DHT22;3533;51.246;6.850;2023-09-18T06:08:28;24.60;51.80
6986;DHT22;3533;51.246;6.850;2023-09-18T06:10:55;24.60;51.80
6986;DHT22;3533;51.246;6.850;2023-09-18T06:13:21;24.60;51.70
6986;DHT22;3533;51.246;6.850;2023-09-18T06:15:47;24.60;51.80
6986;DHT22;3533;51.246;6.850;2023-09-18T06:18:13;24.60;51.80
6986;DHT22;3533;51.246;6.850;2023-09-18T06:20:39;24.60;51.80
6986;DHT22;3533;51.246;6.850;2023-09-18T06:23:06;24.60;51.80
6986;DHT22;3533;51.246;6.850;2023-09-18T06:25:31;24.60;51.80
6986;DHT22;3533;51.246;6.850;2023-09-18T06:27:57;24.60;51.80
6986;DHT22;3533;51.246;6.850;2023-09-18T06:30:23;24.60;51.80
6986;DHT22;3533;51.246;6.850;2023-09-18T06:32:49;24.60;51.80
6986;DHT22;3533;51.246;6.850;2023-09-18T06:35:14;24.60;51.80
6986;DHT22;3533;51.246;6.850;2023-09-18T06:37:40;24.60;51.80
6986;DHT22;3533;51.246;6.850;2023-09-18T06:40:06;24.60;52.60
6986;DHT22;3533;51.246;6.850;2023-09-18T06:42:32;24.60;51.80
6986;DHT22;3533;51.246;6.850;2023-09-18T06:44:58;24.60;51.80
6986;DHT22;3533;51.246;6.850;2023-09-18T06:47:23;24.60;52.60
6986;DHT22;3533;51.246;6.850;2023-09-18T06:49:50;24.60;51.70
6986;DHT22;3533;51.246;6.850;2023-09-18T06:52:16;24.60;52.50
6986;DHT22;3533;51.246;6.850;2023-09-18T06:54:42;24.60;51.80
6986;DHT22;3533;51.246;6.850;2023-09-18T06:57:09;24.60;52.50
6986;DHT22;3533;51.246;6.850;2023-09-18T06:59:35;24.60;51.80
6986;DHT22;3533;51.246;6.850;2023-09-18T07:02:01;24.60;51.80
6986;DHT22;3533;51.246;6.850;2023-09-18T07:04:27;24.60;51.80
6986;DHT22;3533;51.246;6.850;2023-09-18T07:06:52;24.60;51.80
6986;DHT22;3533;51.246;6.850;2023-09-18T07:09:21;24.60;51.80
6986;DHT22;3533;51.246;6.850;2023-09-18T07:11:48;24.60;51.80
6986;DHT22;3533;51.246;6.850;2023-09-18T07:14:14;24.60;51.80
6986;DHT22;3533;51.246;6.850;2023-09-18T07:16:40;24.60;51.80
6986;DHT22;3533;51.246;6.850;2023-09-18T07:19:05;24.60;51.80
6986;DHT22;3533;51.246;6.850;2023-09-18T07:21:31;24.60;51.80
6986;DHT22;3533;51.246;6.850;2023-09-18T07:23:56;24.60;51.80
6986;DHT22;3533;51.246;6.850;2023-09-18T07:26:22;24.60;51.80
6986;DHT22;3533;51.246;6.850;2023-09-18T07:28:48;24.60;51.80
6986;DHT22;3533;51.246;6.850;2023-09-18T07:31:13;24.60;51.80
6986;DHT22;3533;51.246;6.850;2023-09-18T07:33:40;24.60;51.80
6986;DHT22;3533;51.246;6.850;2023-09-18T07:36:06;24.60;51.90
6986;DHT22;3533;51.246;6.850;2023-09-18T07:38:32;24.60;51.80
6986;DHT22;3533;51.246;6.850;2023-09-18T07:40:58;24.60;51.80
6986;DHT22;3533;51.246;6.850;2023-09-18T07:43:24;24.60;51.90
6986;DHT22;3533;51.246;6.850;2023-09-18T07:45:50;24.60;51.80
6986;DHT22;3533;51.246;6.850;2023-09-18T07:48:16;24.60;51.80
6986;DHT22;3533;51.246;6.850;2023-09-18T07:50:48;24.60;51.80
6986;DHT22;3533;51.246;6.850;2023-09-18T07:53:15;24.60;51.80
6986;DHT22;3533;51.246;6.850;2023-09-18T07:55:41;24.60;51.80
6986;DHT22;3533;51.246;6.850;2023-09-18T07:58:06;24.60;51.80
6986;DHT22;3533;51.246;6.850;2023-09-18T08:00:32;24.60;51.80
6986;DHT22;3533;51.246;6.850;2023-09-18T08:02:58;24.60;51.80
6986;DHT22;3533;51.246;6.850;2023-09-18T08:05:26;24.60;51.90
6986;DHT22;3533;51.246;6.850;2023-09-18T08:07:54;24.60;51.90
6986;DHT22;3533;51.246;6.850;2023-09-18T08:10:22;24.60;51.80
6986;DHT22;3533;51.246;6.850;2023-09-18T08:12:48;24.60;51.80
6986;DHT22;3533;51.246;6.850;2023-09-18T08:15:15;24.60;51.80
6986;DHT22;3533;51.246;6.850;2023-09-18T08:17:41;24.60;51.80
6986;DHT22;3533;51.246;6.850;2023-09-18T08:20:08;24.60;51.80
6986;DHT22;3533;51.246;6.850;2023-09-18T08:22:39;24.60;51.80
6986;DHT22;3533;51.246;6.850;2023-09-18T08:25:06;24.60;51.80
6986;DHT22;3533;51.246;6.850;2023-09-18T08:27:37;24.60;51.80
6986;DHT22;3533;51.246;6.850;2023-09-18T08:30:06;24.60;51.90
6986;DHT22;3533;51.246;6.850;2023-09-18T08:32:31;24.60;51.90
6986;DHT22;3533;51.246;6.850;2023-09-18T08:34:59;24.60;51.80
6986;DHT22;3533;51.246;6.850;2023-09-18T08:37:26;24.60;52.60
6986;DHT22;3533;51.246;6.850;2023-09-18T08:39:52;24.60;51.80
6986;DHT22;3533;51.246;6.850;2023-09-18T08:42:19;24.60;51.80
6986;DHT22;3533;51.246;6.850;2023-09-18T08:44:48;24.60;51.80
6986;DHT22;3533;51.246;6.850;2023-09-18T08:47:14;24.60;51.80
6986;DHT22;3533;51.246;6.850;2023-09-18T08:49:41;24.60;51.80
6986;DHT22;3533;51.246;6.850;2023-09-18T08:52:08;24.60;51.80
6986;DHT22;3533;51.246;6.850;2023-09-18T08:54:34;24.60;51.80
6986;DHT22;3533;51.246;6.850;2023-09-18T08:56:59;24.60;51.80
6986;DHT22;3533;51.246;6.850;2023-09-18T08:59:26;24.60;51.80
6986;DHT22;3533;51.246;6.850;2023-09-18T09:01:53;24.60;51.80
6986;DHT22;3533;51.246;6.850;2023-09-18T09:04:19;24.60;51.80
6986;DHT22;3533;51.246;6.850;2023-09-18T09:06:44;24.60;51.80
6986;DHT22;3533;51.246;6.850;2023-09-18T09:09:10;24.60;51.80
6986;DHT22;3533;51.246;6.850;2023-09-18T09:11:38;24.60;51.80
6986;DHT22;3533;51.246;6.850;2023-09-18T09:14:11;24.60;51.80
6986;DHT22;3533;51.246;6.850;2023-09-18T09:16:39;24.60;51.70
6986;DHT22;3533;51.246;6.850;2023-09-18T09:19:05;24.60;51.80
6986;DHT22;3533;51.246;6.850;2023-09-18T09:21:41;24.60;51.80
6986;DHT22;3533;51.246;6.850;2023-09-18T09:24:08;24.60;51.80
6986;DHT22;3533;51.246;6.850;2023-09-18T09:26:42;24.60;51.70
6986;DHT22;3533;51.246;6.850;2023-09-18T09:29:23;24.60;51.80
6986;DHT22;3533;51.246;6.850;2023-09-18T09:31:49;24.60;51.70
6986;DHT22;3533;51.246;6.850;2023-09-18T09:34:27;24.60;51.70
6986;DHT22;3533;51.246;6.850;2023-09-18T09:36:54;24.60;51.80
6986;DHT22;3533;51.246;6.850;2023-09-18T09:39:20;24.60;51.80
6986;DHT22;3533;51.246;6.850;2023-09-18T09:41:47;24.60;51.70
6986;DHT22;3533;51.246;6.850;2023-09-18T09:44:14;24.60;51.70
6986;DHT22;3533;51.246;6.850;2023-09-18T09:46:50;24.60;51.70
6986;DHT22;3533;51.246;6.850;2023-09-18T09:49:17;24.60;51.70
6986;DHT22;3533;51.246;6.850;2023-09-18T09:51:45;24.60;51.70
6986;DHT22;3533;51.246;6.850;2023-09-18T09:54:10;24.60;51.70
6986;DHT22;3533;51.246;6.850;2023-09-18T09:56:48;24.60;51.70
6986;DHT22;3533;51.246;6.850;2023-09-18T09:59:16;24.60;51.70
6986;DHT22;3533;51.246;6.850;2023-09-18T10:01:46;24.60;51.70
6986;DHT22;3533;51.246;6.850;2023-09-18T10:04:15;24.60;51.60
6986;DHT22;3533;51.246;6.850;2023-09-18T10:06:51;24.60;51.70
6986;DHT22;3533;51.246;6.850;2023-09-18T10:09:17;24.60;51.60
6986;DHT22;3533;51.246;6.850;2023-09-18T10:11:46;24.60;51.70
6986;DHT22;3533;51.246;6.850;2023-09-18T10:14:19;24.60;51.70
6986;DHT22;3533;51.246;6.850;2023-09-18T10:16:49;24.60;51.60
6986;DHT22;3533;51.246;6.850;2023-09-18T10:19:32;24.60;51.60
6986;DHT22;3533;51.246;6.850;2023-09-18T10:22:26;24.60;51.60
6986;DHT22;3533;51.246;6.850;2023-09-18T10:25:02;24.60;51.60
6986;DHT22;3533;51.246;6.850;2023-09-18T10:27:29;24.60;51.60
6986;DHT22;3533;51.246;6.850;2023-09-18T10:29:57;24.60;52.30
6986;DHT22;3533;51.246;6.850;2023-09-18T10:32:24;24.60;51.60
6986;DHT22;3533;51.246;6.850;2023-09-18T10:34:51;24.60;51.60
6986;DHT22;3533;51.246;6.850;2023-09-18T10:37:17;24.60;51.60
6986;DHT22;3533;51.246;6.850;2023-09-18T10:39:45;24.70;51.70
6986;DHT22;3533;51.246;6.850;2023-09-18T10:42:15;24.60;51.60
6986;DHT22;3533;51.246;6.850;2023-09-18T10:44:43;24.60;51.60
6986;DHT22;3533;51.246;6.850;2023-09-18T10:47:10;24.70;51.60
6986;DHT22;3533;51.246;6.850;2023-09-18T10:49:36;24.70;51.60
6986;DHT22;3533;51.246;6.850;2023-09-18T10:52:03;24.70;51.70
6986;DHT22;3533;51.246;6.850;2023-09-18T10:54:30;24.70;51.60
6986;DHT22;3533;51.246;6.850;2023-09-18T10:56:57;24.70;51.60
6986;DHT22;3533;51.246;6.850;2023-09-18T10:59:23;24.70;52.30
6986;DHT22;3533;51.246;6.850;2023-09-18T11:01:49;24.70;51.60
6986;DHT22;3533;51.246;6.850;2023-09-18T11:04:19;24.70;51.60
6986;DHT22;3533;51.246;6.850;2023-09-18T11:09:21;24.70;51.60
6986;DHT22;3533;51.246;6.850;2023-09-18T11:17:35;24.70;51.60
6986;DHT22;3533;51.246;6.850;2023-09-18T11:20:09;24.70;51.60
6986;DHT22;3533;51.246;6.850;2023-09-18T11:22:55;24.70;51.60
6986;DHT22;3533;51.246;6.850;2023-09-18T11:25:35;24.70;51.60
6986;DHT22;3533;51.246;6.850;2023-09-18T11:28:03;24.70;51.60
6986;DHT22;3533;51.246;6.850;2023-09-18T11:30:29;24.70;51.60
6986;DHT22;3533;51.246;6.850;2023-09-18T11:32:55;24.70;51.60
6986;DHT22;3533;51.246;6.850;2023-09-18T11:35:21;24.70;51.60
6986;DHT22;3533;51.246;6.850;2023-09-18T11:37:47;24.70;51.60
6986;DHT22;3533;51.246;6.850;2023-09-18T11:40:31;24.70;51.60
6986;DHT22;3533;51.246;6.850;2023-09-18T11:43:27;24.70;51.60
6986;DHT22;3533;51.246;6.850;2023-09-18T11:45:58;24.80;51.60
6986;DHT22;3533;51.246;6.850;2023-09-18T11:48:26;24.80;51.70
6986;DHT22;3533;51.246;6.850;2023-09-18T11:50:56;24.80;52.40
6986;DHT22;3533;51.246;6.850;2023-09-18T11:53:24;24.80;51.70
6986;DHT22;3533;51.246;6.850;2023-09-18T11:55:50;24.80;51.70
6986;DHT22;3533;51.246;6.850;2023-09-18T11:58:15;24.80;51.70
6986;DHT22;3533;51.246;6.850;2023-09-18T12:00:41;24.80;51.60
6986;DHT22;3533;51.246;6.850;2023-09-18T12:03:20;24.80;51.60
6986;DHT22;3533;51.246;6.850;2023-09-18T12:06:01;24.80;51.60
6986;DHT22;3533;51.246;6.850;2023-09-18T12:08:28;24.80;51.60
6986;DHT22;3533;51.246;6.850;2023-09-18T12:10:57;24.80;51.60
6986;DHT22;3533;51.246;6.850;2023-09-18T12:13:25;24.80;51.50
6986;DHT22;3533;51.246;6.850;2023-09-18T12:16:02;24.80;51.60
6986;DHT22;3533;51.246;6.850;2023-09-18T12:18:35;24.80;51.50
6986;DHT22;3533;51.246;6.850;2023-09-18T12:21:06;24.80;51.50
6986;DHT22;3533;51.246;6.850;2023-09-18T12:23:42;24.80;51.50
6986;DHT22;3533;51.246;6.850;2023-09-18T12:26:13;24.80;51.50
6986;DHT22;3533;51.246;6.850;2023-09-18T12:28:43;24.80;51.60
6986;DHT22;3533;51.246;6.850;2023-09-18T12:31:13;24.80;51.50
6986;DHT22;3533;51.246;6.850;2023-09-18T12:33:40;24.80;51.50
6986;DHT22;3533;51.246;6.850;2023-09-18T12:36:07;24.80;51.50
6986;DHT22;3533;51.246;6.850;2023-09-18T12:38:34;24.80;51.50
6986;DHT22;3533;51.246;6.850;2023-09-18T12:41:01;24.80;51.50
6986;DHT22;3533;51.246;6.850;2023-09-18T12:43:35;24.80;51.40
6986;DHT22;3533;51.246;6.850;2023-09-18T12:46:01;24.80;51.40
6986;DHT22;3533;51.246;6.850;2023-09-18T12:48:27;24.80;51.50
6986;DHT22;3533;51.246;6.850;2023-09-18T12:50:53;24.80;51.40
6986;DHT22;3533;51.246;6.850;2023-09-18T12:53:22;24.80;51.40
6986;DHT22;3533;51.246;6.850;2023-09-18T12:55:48;24.80;51.40
6986;DHT22;3533;51.246;6.850;2023-09-18T12:58:21;24.80;51.40
6986;DHT22;3533;51.246;6.850;2023-09-18T13:00:49;24.80;51.40
6986;DHT22;3533;51.246;6.850;2023-09-18T13:03:15;24.80;51.40
6986;DHT22;3533;51.246;6.850;2023-09-18T13:05:41;24.80;51.30
6986;DHT22;3533;51.246;6.850;2023-09-18T13:08:07;24.80;51.40
6986;DHT22;3533;51.246;6.850;2023-09-18T13:10:49;24.80;51.40
6986;DHT22;3533;51.246;6.850;2023-09-18T13:13:17;24.80;51.40
6986;DHT22;3533;51.246;6.850;2023-09-18T13:15:43;24.80;51.40
6986;DHT22;3533;51.246;6.850;2023-09-18T13:18:12;24.80;51.30
6986;DHT22;3533;51.246;6.850;2023-09-18T13:20:37;24.80;51.30
6986;DHT22;3533;51.246;6.850;2023-09-18T13:23:05;24.80;51.30
6986;DHT22;3533;51.246;6.850;2023-09-18T13:25:33;24.80;51.30
6986;DHT22;3533;51.246;6.850;2023-09-18T13:28:00;24.80;51.30
6986;DHT22;3533;51.246;6.850;2023-09-18T13:30:25;24.80;51.30
6986;DHT22;3533;51.246;6.850;2023-09-18T13:32:51;24.80;51.30
6986;DHT22;3533;51.246;6.850;2023-09-18T13:35:26;24.80;51.30
6986;DHT22;3533;51.246;6.850;2023-09-18T13:37:51;24.80;51.30
6986;DHT22;3533;51.246;6.850;2023-09-18T13:40:17;24.80;51.30
6986;DHT22;3533;51.246;6.850;2023-09-18T13:42:43;24.80;51.30
6986;DHT22;3533;51.246;6.850;2023-09-18T13:45:08;24.80;51.30
6986;DHT22;3533;51.246;6.850;2023-09-18T13:47:35;24.80;51.30
6986;DHT22;3533;51.246;6.850;2023-09-18T13:50:01;24.80;51.30
6986;DHT22;3533;51.246;6.850;2023-09-18T13:52:28;24.80;51.20
6986;DHT22;3533;51.246;6.850;2023-09-18T13:54:55;24.80;52.00
6986;DHT22;3533;51.246;6.850;2023-09-18T13:57:21;24.80;51.30
6986;DHT22;3533;51.246;6.850;2023-09-18T13:59:48;24.80;51.30
6986;DHT22;3533;51.246;6.850;2023-09-18T14:02:15;24.80;51.30
6986;DHT22;3533;51.246;6.850;2023-09-18T14:04:41;24.80;51.30
6986;DHT22;3533;51.246;6.850;2023-09-18T14:07:07;24.80;51.20
6986;DHT22;3533;51.246;6.850;2023-09-18T14:09:34;24.80;51.20
6986;DHT22;3533;51.246;6.850;2023-09-18T14:12:00;24.80;51.20
6986;DHT22;3533;51.246;6.850;2023-09-18T14:14:25;24.80;51.20
6986;DHT22;3533;51.246;6.850;2023-09-18T14:16:51;24.80;51.20
6986;DHT22;3533;51.246;6.850;2023-09-18T14:19:19;24.80;51.20
6986;DHT22;3533;51.246;6.850;2023-09-18T14:21:44;24.80;51.20
6986;DHT22;3533;51.246;6.850;2023-09-18T14:24:10;24.80;51.20
6986;DHT22;3533;51.246;6.850;2023-09-18T14:26:36;24.80;51.90
6986;DHT22;3533;51.246;6.850;2023-09-18T14:29:11;24.80;51.20
6986;DHT22;3533;51.246;6.850;2023-09-18T14:31:37;24.80;51.20
6986;DHT22;3533;51.246;6.850;2023-09-18T14:34:03;24.80;51.20
6986;DHT22;3533;51.246;6.850;2023-09-18T14:36:31;24.80;51.20
6986;DHT22;3533;51.246;6.850;2023-09-18T14:38:57;24.80;51.20
6986;DHT22;3533;51.246;6.850;2023-09-18T14:41:24;24.80;51.20
6986;DHT22;3533;51.246;6.850;2023-09-18T14:43:50;24.80;51.20
6986;DHT22;3533;51.246;6.850;2023-09-18T14:46:17;24.80;51.20
6986;DHT22;3533;51.246;6.850;2023-09-18T14:48:42;24.80;51.20
6986;DHT22;3533;51.246;6.850;2023-09-18T14:51:08;24.80;51.20
6986;DHT22;3533;51.246;6.850;2023-09-18T14:53:33;24.80;51.20
6986;DHT22;3533;51.246;6.850;2023-09-18T14:56:00;24.80;51.20
6986;DHT22;3533;51.246;6.850;2023-09-18T14:58:25;24.80;51.20
6986;DHT22;3533;51.246;6.850;2023-09-18T15:00:51;24.80;51.10
6986;DHT22;3533;51.246;6.850;2023-09-18T15:03:17;24.80;51.20
6986;DHT22;3533;51.246;6.850;2023-09-18T15:05:42;24.80;51.20
6986;DHT22;3533;51.246;6.850;2023-09-18T15:08:08;24.80;51.20
6986;DHT22;3533;51.246;6.850;2023-09-18T15:10:34;24.80;51.20
6986;DHT22;3533;51.246;6.850;2023-09-18T15:12:59;24.80;51.10
6986;DHT22;3533;51.246;6.850;2023-09-18T15:15:25;24.80;51.10
6986;DHT22;3533;51.246;6.850;2023-09-18T15:17:51;24.80;51.10
6986;DHT22;3533;51.246;6.850;2023-09-18T15:20:20;24.80;51.20
6986;DHT22;3533;51.246;6.850;2023-09-18T15:22:49;24.80;51.10
6986;DHT22;3533;51.246;6.850;2023-09-18T15:25:15;24.80;51.20
6986;DHT22;3533;51.246;6.850;2023-09-18T15:27:41;24.80;51.10
6986;DHT22;3533;51.246;6.850;2023-09-18T15:30:07;24.80;51.20
6986;DHT22;3533;51.246;6.850;2023-09-18T15:32:53;24.80;51.20
6986;DHT22;3533;51.246;6.850;2023-09-18T15:35:20;24.80;51.10
6986;DHT22;3533;51.246;6.850;2023-09-18T15:37:46;24.70;51.10
6986;DHT22;3533;51.246;6.850;2023-09-18T15:40:12;24.70;51.00
6986;DHT22;3533;51.246;6.850;2023-09-18T15:42:40;24.80;51.10
6986;DHT22;3533;51.246;6.850;2023-09-18T15:45:07;24.70;51.00
6986;DHT22;3533;51.246;6.850;2023-09-18T15:47:33;24.80;51.20
6986;DHT22;3533;51.246;6.850;2023-09-18T15:49:58;24.80;51.10
6986;DHT22;3533;51.246;6.850;2023-09-18T15:52:25;24.80;51.10
6986;DHT22;3533;51.246;6.850;2023-09-18T15:54:50;24.80;51.10
6986;DHT22;3533;51.246;6.850;2023-09-18T15:57:16;24.80;51.10
6986;DHT22;3533;51.246;6.850;2023-09-18T15:59:42;24.80;51.10
6986;DHT22;3533;51.246;6.850;2023-09-18T16:02:08;24.80;51.00
6986;DHT22;3533;51.246;6.850;2023-09-18T16:04:35;24.80;51.00
6986;DHT22;3533;51.246;6.850;2023-09-18T16:07:02;24.80;51.00
6986;DHT22;3533;51.246;6.850;2023-09-18T16:09:27;24.80;51.10
6986;DHT22;3533;51.246;6.850;2023-09-18T16:11:53;24.80;51.00